Mandoudi — SV3198 — position and weather

sailwx.info

Track history (hours):
 
Tides and Currents Weather Stations Pressure Air Temp Water Temp Dewpoint Dewpoint Depression Visibility Wind Speed Wind Dir Waves Ship Positions

Mandoudi

Last reported at 2014-Oct-21 21:33 UTC. Time now 2014-Oct-21 21:40 UTC.
Position N 38°02' E 023°36'.

Length 60 m; draft 4.6 m.

Type: Ship (hazmat cat A). MMSI: 237470200.

Date/timePositionNaut miles runAvg speedWind from/ knotsBaromVisibWave heightAir tempDewpointWater temp
2014-Oct-21 21:33N 38°02' E 023°36'0 0.0
2014-Oct-21 20:33N 38°02' E 023°36'0 0.0
2014-Oct-21 19:33N 38°02' E 023°36'1 0.7
2014-Oct-21 18:33N 38°02' E 023°35'0 0.0
2014-Oct-21 17:33N 38°02' E 023°35'0 0.0
2014-Oct-21 16:33N 38°02' E 023°35'0 0.0
2014-Oct-21 15:33N 38°02' E 023°35'0 0.0
2014-Oct-21 14:33N 38°02' E 023°35'0 0.3
2014-Oct-21 13:33N 38°01' E 023°34'2 2.1
2014-Oct-21 12:33N 38°01' E 023°32'0 0.0
2014-Oct-21 11:33N 38°01' E 023°32'0 0.0
2014-Oct-21 10:32N 38°01' E 023°32'1 0.8
2014-Oct-21 09:33N 38°01' E 023°33'3 2.5
2014-Oct-21 08:31N 38°02' E 023°36'0 0.0
2014-Oct-21 07:33N 38°02' E 023°36'1 1.4
2014-Oct-21 06:33N 38°01' E 023°34'5 5.3
2014-Oct-21 05:33N 37°56' E 023°38'0 0.3
2014-Oct-21 04:33N 37°57' E 023°38'2 1.8
2014-Oct-21 03:33N 37°57' E 023°36'0 0.5
2014-Oct-21 02:33N 37°58' E 023°37'0 0.0
2014-Oct-21 01:33N 37°58' E 023°37'0 0.0
2014-Oct-21 00:33N 37°58' E 023°37'0 0.0
2014-Oct-20 23:33N 37°58' E 023°37'0 0.0
2014-Oct-20 22:33N 37°58' E 023°37'0 0.0
2014-Oct-20 21:33N 37°58' E 023°37'0 0.0
2014-Oct-20 20:33N 37°58' E 023°37'0 0.0
2014-Oct-20 19:33N 37°58' E 023°37'0 0.0
2014-Oct-20 18:33N 37°58' E 023°37'0 0.0
2014-Oct-20 17:33N 37°58' E 023°37'1 1.4
2014-Oct-20 16:33N 37°57' E 023°38'0 0.0
2014-Oct-20 15:33N 37°57' E 023°38'0 0.0
2014-Oct-20 14:33N 37°57' E 023°38'0 0.0
2014-Oct-20 13:33N 37°57' E 023°38'0 0.0
2014-Oct-20 12:33N 37°57' E 023°38'0 0.0
2014-Oct-20 11:33N 37°57' E 023°38'0 0.2
2014-Oct-20 10:33N 37°57' E 023°38'0 0.0
2014-Oct-20 09:33N 37°57' E 023°38'0 0.0
2014-Oct-20 08:33N 37°57' E 023°38'0 0.0
2014-Oct-20 07:33N 37°57' E 023°38'0 0.0
2014-Oct-20 06:33N 37°57' E 023°38'2 1.8
2014-Oct-20 05:33N 37°57' E 023°36'1 0.7
2014-Oct-20 04:33N 37°58' E 023°37'0 0.0
2014-Oct-19 16:10N 37°58' E 023°37'0 0.0
2014-Oct-19 15:33N 37°58' E 023°37'0 0.0
2014-Oct-19 14:33N 37°58' E 023°37'0 0.0
2014-Oct-19 13:33N 37°58' E 023°37'0 0.0
2014-Oct-19 12:33N 37°58' E 023°37'0 0.0
2014-Oct-19 11:33N 37°58' E 023°37'0 0.0
2014-Oct-19 10:33N 37°58' E 023°37'0 0.0
2014-Oct-19 09:33N 37°58' E 023°37'0 0.0
2014-Oct-19 08:33N 37°58' E 023°37'0 0.0
2014-Oct-19 07:33N 37°58' E 023°37'0 0.0
2014-Oct-19 06:33N 37°58' E 023°37'0 0.0
2014-Oct-19 05:33N 37°58' E 023°37'0 0.0
2014-Oct-19 04:33N 37°58' E 023°37'0 0.0
2014-Oct-19 03:33N 37°58' E 023°37'0 0.0
2014-Oct-19 02:33N 37°58' E 023°37'0 0.0
2014-Oct-19 01:33N 37°58' E 023°37'0 0.0
2014-Oct-19 00:33N 37°58' E 023°37'0 0.0
2014-Oct-18 23:33N 37°58' E 023°37'0 0.0
2014-Oct-18 22:33N 37°58' E 023°37'0 0.0
2014-Oct-18 21:33N 37°58' E 023°37'0 0.0
2014-Oct-18 20:33N 37°58' E 023°37'0 0.0
2014-Oct-18 19:33N 37°58' E 023°37'0 0.3
2014-Oct-18 18:33N 37°57' E 023°36'6 5.7
2014-Oct-18 17:33N 38°02' E 023°31'1 0.7
2014-Oct-18 16:33N 38°02' E 023°31'0 0.0
2014-Oct-18 15:33N 38°02' E 023°31'0 0.0
2014-Oct-18 14:33N 38°02' E 023°31'0 0.0
2014-Oct-18 13:32N 38°02' E 023°31'0 0.0
2014-Oct-18 12:33N 38°02' E 023°31'0 0.0
2014-Oct-18 11:33N 38°02' E 023°31'1 0.6
2014-Oct-18 10:33N 38°02' E 023°31'1 0.9
2014-Oct-18 09:33N 38°02' E 023°32'3 2.9
2014-Oct-18 08:33N 37°59' E 023°33'5 4.8
2014-Oct-18 07:33N 37°57' E 023°38'0 0.0
2014-Oct-18 06:33N 37°57' E 023°38'0 0.0
2014-Oct-18 05:33N 37°57' E 023°38'1 1.0
2014-Oct-18 04:33N 37°56' E 023°37'1 1.2
2014-Oct-18 03:33N 37°58' E 023°37'0 0.1
2014-Oct-18 02:33N 37°58' E 023°37'0 0.0
2014-Oct-18 01:33N 37°58' E 023°37'0 0.0
2014-Oct-18 00:33N 37°58' E 023°37'0 0.0
2014-Oct-17 23:33N 37°58' E 023°37'0 0.0
2014-Oct-17 22:33N 37°58' E 023°37'0 0.0
2014-Oct-17 21:33N 37°58' E 023°37'0 0.0
2014-Oct-17 20:33N 37°58' E 023°37'0 0.0
2014-Oct-17 19:33N 37°58' E 023°37'0 0.0
2014-Oct-17 18:33N 37°58' E 023°37'0 0.4
2014-Oct-17 17:33N 37°57' E 023°36'4 3.7
2014-Oct-17 16:33N 38°01' E 023°34'2 1.7
2014-Oct-17 15:33N 38°02' E 023°36'0 0.0
2014-Oct-17 14:33N 38°02' E 023°36'0 0.4
2014-Oct-17 13:33N 38°02' E 023°35'0 0.0
2014-Oct-17 12:33N 38°02' E 023°35'0 0.0
2014-Oct-17 11:33N 38°02' E 023°35'0 0.1
2014-Oct-17 10:33N 38°02' E 023°35'0 0.0
2014-Oct-17 09:33N 38°02' E 023°35'0 0.0
2014-Oct-17 08:33N 38°02' E 023°35'0 0.2
2014-Oct-17 07:33N 38°02' E 023°35'4 3.6
2014-Oct-17 06:33N 37°58' E 023°33'5 4.6
2014-Oct-17 05:33N 37°57' E 023°38'0 0.0
2014-Oct-17 04:33N 37°57' E 023°38'0 0.0
2014-Oct-17 03:33N 37°57' E 023°38'2 1.7
2014-Oct-17 02:33N 37°57' E 023°36'1 0.1
2014-Oct-16 13:05N 37°58' E 023°37'0 0.0
2014-Oct-16 12:33N 37°58' E 023°37'0 0.0
2014-Oct-16 11:33N 37°58' E 023°37'1 1.4
2014-Oct-16 10:33N 37°57' E 023°38'0 0.0
2014-Oct-16 09:33N 37°57' E 023°38'0 0.0
2014-Oct-16 08:33N 37°57' E 023°38'0 0.0
2014-Oct-16 07:33N 37°57' E 023°38'0 0.1
2014-Oct-16 06:33N 37°57' E 023°38'0 0.0
2014-Oct-16 05:33N 37°57' E 023°38'0 0.0
2014-Oct-16 04:33N 37°57' E 023°38'1 1.4
2014-Oct-16 03:33N 37°58' E 023°37'0 0.0
2014-Oct-16 02:33N 37°58' E 023°37'0 0.0
2014-Oct-16 01:33N 37°58' E 023°37'0 0.0
2014-Oct-16 00:33N 37°58' E 023°37'0 0.0
2014-Oct-15 23:33N 37°58' E 023°37'0 0.0
2014-Oct-15 22:30N 37°58' E 023°37'0 0.0
2014-Oct-15 21:33N 37°58' E 023°37'0 0.0
2014-Oct-15 20:33N 37°58' E 023°37'0 0.0
2014-Oct-15 19:33N 37°58' E 023°37'0 0.0
2014-Oct-15 18:33N 37°58' E 023°37'1 0.6
2014-Oct-15 17:33N 37°57' E 023°36'4 4.0
2014-Oct-15 16:33N 38°01' E 023°35'1 0.9
2014-Oct-15 15:33N 38°02' E 023°36'0 0.0
2014-Oct-15 14:33N 38°02' E 023°36'0 0.0
2014-Oct-15 13:28N 38°02' E 023°36'0 0.0
2014-Oct-15 12:32N 38°02' E 023°36'0 0.5
2014-Oct-15 11:33N 38°02' E 023°35'0 0.0
2014-Oct-15 10:33N 38°02' E 023°35'0 0.0
2014-Oct-15 09:33N 38°02' E 023°35'2 2.2
2014-Oct-15 08:33N 37°60' E 023°33'5 5.1
2014-Oct-15 07:33N 37°56' E 023°38'0 0.0
2014-Oct-15 06:33N 37°56' E 023°38'0 0.0
2014-Oct-15 05:33N 37°56' E 023°38'0 0.0
2014-Oct-15 04:33N 37°56' E 023°38'1 1.5
2014-Oct-15 03:33N 37°58' E 023°37'0 0.1
2014-Oct-15 02:33N 37°58' E 023°37'0 0.0
2014-Oct-15 01:33N 37°58' E 023°37'0 0.0
2014-Oct-15 00:33N 37°58' E 023°37'0 0.0
2014-Oct-14 23:33N 37°58' E 023°37'0 0.0
2014-Oct-14 22:33N 37°58' E 023°37'0 0.0
2014-Oct-14 21:33N 37°58' E 023°37'0 0.0
2014-Oct-14 20:33N 37°58' E 023°37'0 0.0
2014-Oct-14 19:33N 37°58' E 023°37'0 0.0
2014-Oct-14 18:33N 37°58' E 023°37'1 1.4
2014-Oct-14 17:33N 37°56' E 023°38'1 0.6
2014-Oct-14 16:33N 37°57' E 023°38'0 0.0
2014-Oct-14 15:33N 37°57' E 023°38'3 3.4
2014-Oct-14 14:33N 37°57' E 023°34'6 5.6
2014-Oct-14 13:33N 38°02' E 023°31'0 0.0
2014-Oct-14 12:33N 38°02' E 023°31'0 0.0
2014-Oct-14 11:33N 38°02' E 023°31'0 0.0
2014-Oct-14 10:33N 38°02' E 023°31'0 0.0
2014-Oct-14 09:33N 38°02' E 023°31'0 0.0
2014-Oct-14 08:33N 38°02' E 023°31'0 0.0
2014-Oct-14 07:33N 38°02' E 023°31'0 0.0
2014-Oct-14 06:33N 38°02' E 023°31'0 0.0
2014-Oct-14 05:33N 38°02' E 023°31'1 0.7
2014-Oct-14 04:33N 38°02' E 023°31'2 2.0
2014-Oct-14 03:33N 38°00' E 023°33'4 4.1
2014-Oct-14 02:33N 37°58' E 023°37'0 0.0
2014-Oct-14 01:22N 37°58' E 023°37'0 0.0
2014-Oct-14 00:20N 37°58' E 023°37'0 0.0
2014-Oct-13 23:33N 37°58' E 023°37'0 0.0
2014-Oct-13 22:31N 37°58' E 023°37'0 0.0
2014-Oct-13 21:33N 37°58' E 023°37'0 0.0
2014-Oct-13 20:33N 37°58' E 023°37'0 0.0
2014-Oct-13 19:33N 37°58' E 023°37'0 0.0
2014-Oct-13 18:33N 37°58' E 023°37'0 0.0
2014-Oct-13 17:33N 37°58' E 023°37'0 0.0
2014-Oct-13 16:33N 37°58' E 023°37'0 0.0
2014-Oct-13 15:33N 37°58' E 023°37'1 1.3
2014-Oct-13 14:33N 37°56' E 023°37'1 1.0
2014-Oct-13 13:33N 37°57' E 023°38'0 0.0
2014-Oct-13 12:33N 37°57' E 023°38'0 0.2
2014-Oct-13 11:32N 37°57' E 023°38'0 0.0
2014-Oct-13 10:33N 37°57' E 023°38'0 0.0
2014-Oct-13 09:33N 37°57' E 023°38'0 0.0
2014-Oct-13 08:33N 37°57' E 023°38'0 0.0
2014-Oct-13 07:33N 37°57' E 023°38'1 1.5
2014-Oct-13 06:33N 37°57' E 023°36'1 1.0
2014-Oct-13 05:33N 37°58' E 023°37'0 0.0
2014-Oct-13 04:33N 37°58' E 023°37'0 0.0
2014-Oct-13 03:33N 37°58' E 023°37'0 0.0
2014-Oct-12 18:34N 37°58' E 023°37'0 0.0
2014-Oct-12 17:31N 37°58' E 023°37'0 0.0
2014-Oct-12 16:34N 37°58' E 023°37'0 0.0
2014-Oct-12 15:34N 37°58' E 023°37'0 0.0
2014-Oct-12 14:34N 37°58' E 023°37'0 0.0
2014-Oct-12 13:34N 37°58' E 023°37'0 0.0
2014-Oct-12 12:33N 37°58' E 023°37'0 0.0
2014-Oct-12 11:34N 37°58' E 023°37'0 0.0
2014-Oct-12 10:34N 37°58' E 023°37'0 0.0
2014-Oct-12 09:34N 37°58' E 023°37'0 0.0
2014-Oct-12 08:34N 37°58' E 023°37'0 0.0
2014-Oct-12 07:33N 37°58' E 023°37'0 0.0
2014-Oct-12 06:34N 37°58' E 023°37'0 0.0
2014-Oct-12 05:34N 37°58' E 023°37'0 0.0
2014-Oct-12 04:34N 37°58' E 023°37'0 0.0
2014-Oct-12 03:33N 37°58' E 023°37'0 0.0
2014-Oct-12 02:33N 37°58' E 023°37'0 0.0
2014-Oct-12 01:34N 37°58' E 023°37'0 0.0
2014-Oct-12 00:34N 37°58' E 023°37'0 0.0
2014-Oct-11 23:34N 37°58' E 023°37'0 0.0
2014-Oct-11 22:34N 37°58' E 023°37'0 0.0
2014-Oct-11 21:34N 37°58' E 023°37'  
Track history (hours):
 
Tides and Currents Weather Stations Pressure Air Temp Water Temp Dewpoint Dewpoint Depression Visibility Wind Speed Wind Dir Waves Ship Positions

Mandoudi

Last reported at 2014-Oct-21 21:33 UTC. Time now 2014-Oct-21 21:40 UTC.
Position N 38°02' E 023°36'.

Length 60 m; draft 4.6 m.

Type: Ship (hazmat cat A). MMSI: 237470200.

Date/timePositionNaut miles runAvg speedWind from/ knotsBaromVisibWave heightAir tempDewpointWater temp
2014-Oct-21 21:33N 38°02' E 023°36'0 0.0
2014-Oct-21 20:33N 38°02' E 023°36'0 0.0
2014-Oct-21 19:33N 38°02' E 023°36'1 0.7
2014-Oct-21 18:33N 38°02' E 023°35'0 0.0
2014-Oct-21 17:33N 38°02' E 023°35'0 0.0
2014-Oct-21 16:33N 38°02' E 023°35'0 0.0
2014-Oct-21 15:33N 38°02' E 023°35'0 0.0
2014-Oct-21 14:33N 38°02' E 023°35'0 0.3
2014-Oct-21 13:33N 38°01' E 023°34'2 2.1
2014-Oct-21 12:33N 38°01' E 023°32'0 0.0
2014-Oct-21 11:33N 38°01' E 023°32'0 0.0
2014-Oct-21 10:32N 38°01' E 023°32'1 0.8
2014-Oct-21 09:33N 38°01' E 023°33'3 2.5
2014-Oct-21 08:31N 38°02' E 023°36'0 0.0
2014-Oct-21 07:33N 38°02' E 023°36'1 1.4
2014-Oct-21 06:33N 38°01' E 023°34'5 5.3
2014-Oct-21 05:33N 37°56' E 023°38'0 0.3
2014-Oct-21 04:33N 37°57' E 023°38'2 1.8
2014-Oct-21 03:33N 37°57' E 023°36'0 0.5
2014-Oct-21 02:33N 37°58' E 023°37'0 0.0
2014-Oct-21 01:33N 37°58' E 023°37'0 0.0
2014-Oct-21 00:33N 37°58' E 023°37'0 0.0
2014-Oct-20 23:33N 37°58' E 023°37'0 0.0
2014-Oct-20 22:33N 37°58' E 023°37'0 0.0
2014-Oct-20 21:33N 37°58' E 023°37'0 0.0
2014-Oct-20 20:33N 37°58' E 023°37'0 0.0
2014-Oct-20 19:33N 37°58' E 023°37'0 0.0
2014-Oct-20 18:33N 37°58' E 023°37'0 0.0
2014-Oct-20 17:33N 37°58' E 023°37'1 1.4
2014-Oct-20 16:33N 37°57' E 023°38'0 0.0
2014-Oct-20 15:33N 37°57' E 023°38'0 0.0
2014-Oct-20 14:33N 37°57' E 023°38'0 0.0
2014-Oct-20 13:33N 37°57' E 023°38'0 0.0
2014-Oct-20 12:33N 37°57' E 023°38'0 0.0
2014-Oct-20 11:33N 37°57' E 023°38'0 0.2
2014-Oct-20 10:33N 37°57' E 023°38'0 0.0
2014-Oct-20 09:33N 37°57' E 023°38'0 0.0
2014-Oct-20 08:33N 37°57' E 023°38'0 0.0
2014-Oct-20 07:33N 37°57' E 023°38'0 0.0
2014-Oct-20 06:33N 37°57' E 023°38'2 1.8
2014-Oct-20 05:33N 37°57' E 023°36'1 0.7
2014-Oct-20 04:33N 37°58' E 023°37'0 0.0
2014-Oct-19 16:10N 37°58' E 023°37'0 0.0
2014-Oct-19 15:33N 37°58' E 023°37'0 0.0
2014-Oct-19 14:33N 37°58' E 023°37'0 0.0
2014-Oct-19 13:33N 37°58' E 023°37'0 0.0
2014-Oct-19 12:33N 37°58' E 023°37'0 0.0
2014-Oct-19 11:33N 37°58' E 023°37'0 0.0
2014-Oct-19 10:33N 37°58' E 023°37'0 0.0
2014-Oct-19 09:33N 37°58' E 023°37'0 0.0
2014-Oct-19 08:33N 37°58' E 023°37'0 0.0
2014-Oct-19 07:33N 37°58' E 023°37'0 0.0
2014-Oct-19 06:33N 37°58' E 023°37'0 0.0
2014-Oct-19 05:33N 37°58' E 023°37'0 0.0
2014-Oct-19 04:33N 37°58' E 023°37'0 0.0
2014-Oct-19 03:33N 37°58' E 023°37'0 0.0
2014-Oct-19 02:33N 37°58' E 023°37'0 0.0
2014-Oct-19 01:33N 37°58' E 023°37'0 0.0
2014-Oct-19 00:33N 37°58' E 023°37'0 0.0
2014-Oct-18 23:33N 37°58' E 023°37'0 0.0
2014-Oct-18 22:33N 37°58' E 023°37'0 0.0
2014-Oct-18 21:33N 37°58' E 023°37'0 0.0
2014-Oct-18 20:33N 37°58' E 023°37'0 0.0
2014-Oct-18 19:33N 37°58' E 023°37'0 0.3
2014-Oct-18 18:33N 37°57' E 023°36'6 5.7
2014-Oct-18 17:33N 38°02' E 023°31'1 0.7
2014-Oct-18 16:33N 38°02' E 023°31'0 0.0
2014-Oct-18 15:33N 38°02' E 023°31'0 0.0
2014-Oct-18 14:33N 38°02' E 023°31'0 0.0
2014-Oct-18 13:32N 38°02' E 023°31'0 0.0
2014-Oct-18 12:33N 38°02' E 023°31'0 0.0
2014-Oct-18 11:33N 38°02' E 023°31'1 0.6
2014-Oct-18 10:33N 38°02' E 023°31'1 0.9
2014-Oct-18 09:33N 38°02' E 023°32'3 2.9
2014-Oct-18 08:33N 37°59' E 023°33'5 4.8
2014-Oct-18 07:33N 37°57' E 023°38'0 0.0
2014-Oct-18 06:33N 37°57' E 023°38'0 0.0
2014-Oct-18 05:33N 37°57' E 023°38'1 1.0
2014-Oct-18 04:33N 37°56' E 023°37'1 1.2
2014-Oct-18 03:33N 37°58' E 023°37'0 0.1
2014-Oct-18 02:33N 37°58' E 023°37'0 0.0
2014-Oct-18 01:33N 37°58' E 023°37'0 0.0
2014-Oct-18 00:33N 37°58' E 023°37'0 0.0
2014-Oct-17 23:33N 37°58' E 023°37'0 0.0
2014-Oct-17 22:33N 37°58' E 023°37'0 0.0
2014-Oct-17 21:33N 37°58' E 023°37'0 0.0
2014-Oct-17 20:33N 37°58' E 023°37'0 0.0
2014-Oct-17 19:33N 37°58' E 023°37'0 0.0
2014-Oct-17 18:33N 37°58' E 023°37'0 0.4
2014-Oct-17 17:33N 37°57' E 023°36'4 3.7
2014-Oct-17 16:33N 38°01' E 023°34'2 1.7
2014-Oct-17 15:33N 38°02' E 023°36'0 0.0
2014-Oct-17 14:33N 38°02' E 023°36'0 0.4
2014-Oct-17 13:33N 38°02' E 023°35'0 0.0
2014-Oct-17 12:33N 38°02' E 023°35'0 0.0
2014-Oct-17 11:33N 38°02' E 023°35'0 0.1
2014-Oct-17 10:33N 38°02' E 023°35'0 0.0
2014-Oct-17 09:33N 38°02' E 023°35'0 0.0
2014-Oct-17 08:33N 38°02' E 023°35'0 0.2
2014-Oct-17 07:33N 38°02' E 023°35'4 3.6
2014-Oct-17 06:33N 37°58' E 023°33'5 4.6
2014-Oct-17 05:33N 37°57' E 023°38'0 0.0
2014-Oct-17 04:33N 37°57' E 023°38'0 0.0
2014-Oct-17 03:33N 37°57' E 023°38'2 1.7
2014-Oct-17 02:33N 37°57' E 023°36'1 0.1
2014-Oct-16 13:05N 37°58' E 023°37'0 0.0
2014-Oct-16 12:33N 37°58' E 023°37'0 0.0
2014-Oct-16 11:33N 37°58' E 023°37'1 1.4
2014-Oct-16 10:33N 37°57' E 023°38'0 0.0
2014-Oct-16 09:33N 37°57' E 023°38'0 0.0
2014-Oct-16 08:33N 37°57' E 023°38'0 0.0
2014-Oct-16 07:33N 37°57' E 023°38'0 0.1
2014-Oct-16 06:33N 37°57' E 023°38'0 0.0
2014-Oct-16 05:33N 37°57' E 023°38'0 0.0
2014-Oct-16 04:33N 37°57' E 023°38'1 1.4
2014-Oct-16 03:33N 37°58' E 023°37'0 0.0
2014-Oct-16 02:33N 37°58' E 023°37'0 0.0
2014-Oct-16 01:33N 37°58' E 023°37'0 0.0
2014-Oct-16 00:33N 37°58' E 023°37'0 0.0
2014-Oct-15 23:33N 37°58' E 023°37'0 0.0
2014-Oct-15 22:30N 37°58' E 023°37'0 0.0
2014-Oct-15 21:33N 37°58' E 023°37'0 0.0
2014-Oct-15 20:33N 37°58' E 023°37'0 0.0
2014-Oct-15 19:33N 37°58' E 023°37'0 0.0
2014-Oct-15 18:33N 37°58' E 023°37'1 0.6
2014-Oct-15 17:33N 37°57' E 023°36'4 4.0
2014-Oct-15 16:33N 38°01' E 023°35'1 0.9
2014-Oct-15 15:33N 38°02' E 023°36'0 0.0
2014-Oct-15 14:33N 38°02' E 023°36'0 0.0
2014-Oct-15 13:28N 38°02' E 023°36'0 0.0
2014-Oct-15 12:32N 38°02' E 023°36'0 0.5
2014-Oct-15 11:33N 38°02' E 023°35'0 0.0
2014-Oct-15 10:33N 38°02' E 023°35'0 0.0
2014-Oct-15 09:33N 38°02' E 023°35'2 2.2
2014-Oct-15 08:33N 37°60' E 023°33'5 5.1
2014-Oct-15 07:33N 37°56' E 023°38'0 0.0
2014-Oct-15 06:33N 37°56' E 023°38'0 0.0
2014-Oct-15 05:33N 37°56' E 023°38'0 0.0
2014-Oct-15 04:33N 37°56' E 023°38'1 1.5
2014-Oct-15 03:33N 37°58' E 023°37'0 0.1
2014-Oct-15 02:33N 37°58' E 023°37'0 0.0
2014-Oct-15 01:33N 37°58' E 023°37'0 0.0
2014-Oct-15 00:33N 37°58' E 023°37'0 0.0
2014-Oct-14 23:33N 37°58' E 023°37'0 0.0
2014-Oct-14 22:33N 37°58' E 023°37'0 0.0
2014-Oct-14 21:33N 37°58' E 023°37'0 0.0
2014-Oct-14 20:33N 37°58' E 023°37'0 0.0
2014-Oct-14 19:33N 37°58' E 023°37'0 0.0
2014-Oct-14 18:33N 37°58' E 023°37'1 1.4
2014-Oct-14 17:33N 37°56' E 023°38'1 0.6
2014-Oct-14 16:33N 37°57' E 023°38'0 0.0
2014-Oct-14 15:33N 37°57' E 023°38'3 3.4
2014-Oct-14 14:33N 37°57' E 023°34'6 5.6
2014-Oct-14 13:33N 38°02' E 023°31'0 0.0
2014-Oct-14 12:33N 38°02' E 023°31'0 0.0
2014-Oct-14 11:33N 38°02' E 023°31'0 0.0
2014-Oct-14 10:33N 38°02' E 023°31'0 0.0
2014-Oct-14 09:33N 38°02' E 023°31'0 0.0
2014-Oct-14 08:33N 38°02' E 023°31'0 0.0
2014-Oct-14 07:33N 38°02' E 023°31'0 0.0
2014-Oct-14 06:33N 38°02' E 023°31'0 0.0
2014-Oct-14 05:33N 38°02' E 023°31'1 0.7
2014-Oct-14 04:33N 38°02' E 023°31'2 2.0
2014-Oct-14 03:33N 38°00' E 023°33'4 4.1
2014-Oct-14 02:33N 37°58' E 023°37'0 0.0
2014-Oct-14 01:22N 37°58' E 023°37'0 0.0
2014-Oct-14 00:20N 37°58' E 023°37'0 0.0
2014-Oct-13 23:33N 37°58' E 023°37'0 0.0
2014-Oct-13 22:31N 37°58' E 023°37'0 0.0
2014-Oct-13 21:33N 37°58' E 023°37'0 0.0
2014-Oct-13 20:33N 37°58' E 023°37'0 0.0
2014-Oct-13 19:33N 37°58' E 023°37'0 0.0
2014-Oct-13 18:33N 37°58' E 023°37'0 0.0
2014-Oct-13 17:33N 37°58' E 023°37'0 0.0
2014-Oct-13 16:33N 37°58' E 023°37'0 0.0
2014-Oct-13 15:33N 37°58' E 023°37'1 1.3
2014-Oct-13 14:33N 37°56' E 023°37'1 1.0
2014-Oct-13 13:33N 37°57' E 023°38'0 0.0
2014-Oct-13 12:33N 37°57' E 023°38'0 0.2
2014-Oct-13 11:32N 37°57' E 023°38'0 0.0
2014-Oct-13 10:33N 37°57' E 023°38'0 0.0
2014-Oct-13 09:33N 37°57' E 023°38'0 0.0
2014-Oct-13 08:33N 37°57' E 023°38'0 0.0
2014-Oct-13 07:33N 37°57' E 023°38'1 1.5
2014-Oct-13 06:33N 37°57' E 023°36'1 1.0
2014-Oct-13 05:33N 37°58' E 023°37'0 0.0
2014-Oct-13 04:33N 37°58' E 023°37'0 0.0
2014-Oct-13 03:33N 37°58' E 023°37'0 0.0
2014-Oct-12 18:34N 37°58' E 023°37'0 0.0
2014-Oct-12 17:31N 37°58' E 023°37'0 0.0
2014-Oct-12 16:34N 37°58' E 023°37'0 0.0
2014-Oct-12 15:34N 37°58' E 023°37'0 0.0
2014-Oct-12 14:34N 37°58' E 023°37'0 0.0
2014-Oct-12 13:34N 37°58' E 023°37'0 0.0
2014-Oct-12 12:33N 37°58' E 023°37'0 0.0
2014-Oct-12 11:34N 37°58' E 023°37'0 0.0
2014-Oct-12 10:34N 37°58' E 023°37'0 0.0
2014-Oct-12 09:34N 37°58' E 023°37'0 0.0
2014-Oct-12 08:34N 37°58' E 023°37'0 0.0
2014-Oct-12 07:33N 37°58' E 023°37'0 0.0
2014-Oct-12 06:34N 37°58' E 023°37'0 0.0
2014-Oct-12 05:34N 37°58' E 023°37'0 0.0
2014-Oct-12 04:34N 37°58' E 023°37'0 0.0
2014-Oct-12 03:33N 37°58' E 023°37'0 0.0
2014-Oct-12 02:33N 37°58' E 023°37'0 0.0
2014-Oct-12 01:34N 37°58' E 023°37'0 0.0
2014-Oct-12 00:34N 37°58' E 023°37'0 0.0
2014-Oct-11 23:34N 37°58' E 023°37'0 0.0
2014-Oct-11 22:34N 37°58' E 023°37'0 0.0
2014-Oct-11 21:34N 37°58' E 023°37'  

Dump ship's entire track history